Time;durP1;ratioP1;P1;durP2;ratioP2;P2;SDS_P1;SDS_P2;PMS_P1;PMS_P2;Temp;Humidity;BMP_temperature;BMP_pressure;BME280_temperature;BME280_humidity;BME280_pressure;Samples;Min_cycle;Max_cycle;Signal;HPM_P1;HPM_P2
2023/09/07 00:00:31;;;;;;;4.20;3.80;;;;;;;17.26;100.00;98401.53;5076979;28;20228;-78
2023/09/07 00:02:58;;;;;;;6.40;4.10;;;;;;;17.19;100.00;98398.22;5077152;28;20215;-78
2023/09/07 00:05:24;;;;;;;4.40;3.83;;;;;;;17.11;100.00;98395.19;5076702;28;20243;-78
2023/09/07 00:07:51;;;;;;;5.07;3.97;;;;;;;17.14;100.00;98397.38;5076783;28;20283;-78
2023/09/07 00:10:18;;;;;;;5.73;3.70;;;;;;;17.00;100.00;98399.63;5076136;28;20267;-78
2023/09/07 00:12:45;;;;;;;4.70;3.40;;;;;;;17.20;100.00;98405.22;5076280;28;20205;-78
2023/09/07 00:15:12;;;;;;;4.07;3.13;;;;;;;16.99;100.00;98397.19;5076545;28;20200;-78
2023/09/07 00:17:38;;;;;;;3.83;3.37;;;;;;;16.93;100.00;98400.88;5076500;28;20201;-78
2023/09/07 00:20:10;;;;;;;4.43;3.30;;;;;;;16.88;100.00;98407.00;5075303;28;20225;-78
2023/09/07 00:22:36;;;;;;;4.17;3.63;;;;;;;16.87;100.00;98404.59;5077303;28;20196;-78
2023/09/07 00:25:03;;;;;;;4.57;3.37;;;;;;;16.88;100.00;98411.56;5076864;28;20211;-78
2023/09/07 00:27:30;;;;;;;4.03;3.73;;;;;;;16.90;100.00;98402.19;5077631;28;20215;-78
2023/09/07 00:29:57;;;;;;;5.03;3.50;;;;;;;16.91;100.00;98405.69;5077249;28;20224;-78
2023/09/07 00:32:23;;;;;;;4.20;3.70;;;;;;;17.00;100.00;98399.63;5076883;28;20215;-78
2023/09/07 00:34:49;;;;;;;5.30;3.40;;;;;;;16.83;100.00;98406.16;5076940;28;20208;-78
2023/09/07 00:37:16;;;;;;;5.60;3.23;;;;;;;16.88;100.00;98398.16;5076531;28;20208;-77
2023/09/07 00:39:42;;;;;;;5.23;3.60;;;;;;;16.70;100.00;98399.25;5075860;28;20228;-78
2023/09/07 00:42:08;;;;;;;5.00;3.47;;;;;;;16.71;100.00;98400.91;5076387;28;20211;-78
2023/09/07 00:44:35;;;;;;;4.03;3.70;;;;;;;16.74;100.00;98400.38;5076435;28;20208;-78
2023/09/07 00:47:02;;;;;;;4.03;3.60;;;;;;;16.73;100.00;98398.75;5075530;28;20211;-78
2023/09/07 00:49:29;;;;;;;4.10;3.70;;;;;;;16.76;100.00;98400.97;5075558;28;20307;-78
2023/09/07 00:51:56;;;;;;;3.83;3.53;;;;;;;16.79;100.00;98403.13;5075611;28;20200;-78
2023/09/07 00:54:22;;;;;;;6.03;3.80;;;;;;;16.73;100.00;98396.06;5075172;28;20206;-78
2023/09/07 00:56:48;;;;;;;4.27;3.70;;;;;;;16.72;100.00;98391.78;5075344;28;20204;-78
2023/09/07 00:59:15;;;;;;;4.20;3.80;;;;;;;16.76;100.00;98398.28;5074935;28;20225;-78
2023/09/07 01:01:41;;;;;;;3.97;3.53;;;;;;;16.71;100.00;98395.53;5075045;28;20686;-78
2023/09/07 01:04:08;;;;;;;4.87;3.63;;;;;;;16.74;100.00;98411.13;5075184;28;20287;-78
2023/09/07 01:09:17;;;;;;;5.03;3.73;;;;;;;16.81;100.00;98401.00;5122622;22;20468;-79
2023/09/07 01:11:44;;;;;;;4.50;4.10;;;;;;;16.70;100.00;98407.31;5093412;28;20215;-79
2023/09/07 01:14:10;;;;;;;4.30;3.90;;;;;;;16.77;100.00;98394.50;5094085;28;20200;-78
2023/09/07 01:16:38;;;;;;;4.53;4.13;;;;;;;16.80;100.00;98399.41;5094027;28;20218;-78
2023/09/07 01:19:06;;;;;;;5.20;4.23;;;;;;;16.92;100.00;98400.06;5093906;28;20280;-78
2023/09/07 01:21:36;;;;;;;4.83;3.80;;;;;;;16.86;100.00;98403.75;5093596;28;20203;-78
2023/09/07 01:24:05;;;;;;;7.57;3.93;;;;;;;16.80;100.00;98396.72;5093784;28;20204;-78
2023/09/07 01:26:32;;;;;;;3.90;3.50;;;;;;;16.69;100.00;98403.00;5093531;28;20253;-78
2023/09/07 01:28:58;;;;;;;4.43;4.00;;;;;;;16.76;100.00;98394.75;5093714;28;20227;-78
2023/09/07 01:31:24;;;;;;;4.13;3.83;;;;;;;16.69;100.00;98392.25;5094081;28;20206;-78
2023/09/07 01:33:51;;;;;;;4.47;4.07;;;;;;;16.67;100.00;98391.72;5097804;28;20202;-78
2023/09/07 01:36:17;;;;;;;8.70;4.70;;;;;;;16.65;100.00;98395.72;5098305;28;20239;-78
2023/09/07 01:38:43;;;;;;;5.00;4.43;;;;;;;16.63;100.00;98392.44;5097684;28;20230;-78
2023/09/07 01:41:10;;;;;;;5.10;4.60;;;;;;;16.60;100.00;98384.91;5097605;28;20574;-78
2023/09/07 01:43:36;;;;;;;5.87;4.63;;;;;;;16.62;100.00;98382.78;5097356;28;20199;-78
2023/09/07 01:46:03;;;;;;;5.70;4.17;;;;;;;16.67;100.00;98383.66;5098019;28;20199;-78
2023/09/07 01:48:29;;;;;;;6.97;4.50;;;;;;;16.66;100.00;98381.22;5097621;28;20231;-78
2023/09/07 01:50:55;;;;;;;5.90;4.60;;;;;;;16.59;100.00;98394.81;5097446;28;20565;-78
2023/09/07 01:53:22;;;;;;;6.77;4.60;;;;;;;16.66;100.00;98387.41;5097395;28;20200;-78
2023/09/07 01:55:48;;;;;;;5.33;4.80;;;;;;;16.59;100.00;98396.69;5097617;28;20211;-78
2023/09/07 01:58:15;;;;;;;6.60;4.40;;;;;;;16.56;100.00;98398.00;5097495;28;20304;-78
2023/09/07 02:00:41;;;;;;;5.17;4.60;;;;;;;16.56;100.00;98400.69;5097384;28;20227;-78
2023/09/07 02:03:07;;;;;;;5.37;4.87;;;;;;;16.51;100.00;98392.56;5097412;28;20208;-77
2023/09/07 02:05:34;;;;;;;5.40;4.90;;;;;;;16.53;100.00;98395.00;5097720;28;20200;-77
2023/09/07 02:08:00;;;;;;;5.63;4.37;;;;;;;16.38;100.00;98395.56;5097016;28;20705;-77
2023/09/07 02:10:27;;;;;;;5.43;4.33;;;;;;;16.42;100.00;98401.31;5097299;28;20233;-77
2023/09/07 02:12:53;;;;;;;6.47;4.97;;;;;;;16.41;100.00;98397.78;5097245;28;20204;-77
2023/09/07 02:15:19;;;;;;;6.13;4.90;;;;;;;16.38;100.00;98397.47;5097225;28;20585;-77
2023/09/07 02:17:46;;;;;;;5.77;4.93;;;;;;;16.38;100.00;98400.13;5096972;28;20228;-77
2023/09/07 02:20:12;;;;;;;5.53;5.00;;;;;;;16.39;100.00;98407.94;5097183;28;20226;-77
2023/09/07 02:22:39;;;;;;;5.13;4.60;;;;;;;16.38;100.00;98400.13;5096955;28;20212;-77
2023/09/07 02:25:07;;;;;;;5.43;4.83;;;;;;;16.31;100.00;98402.16;5097474;28;20200;-77
2023/09/07 02:27:36;;;;;;;6.17;4.50;;;;;;;16.28;100.00;98397.31;5096879;28;20220;-78
2023/09/07 02:30:04;;;;;;;6.20;5.00;;;;;;;16.26;100.00;98399.41;5097036;28;20196;-78
2023/09/07 02:32:30;;;;;;;6.53;5.10;;;;;;;16.28;100.00;98394.63;5096792;28;20204;-78
2023/09/07 02:34:57;;;;;;;5.87;5.27;;;;;;;16.22;100.00;98391.06;5097186;28;20573;-77
2023/09/07 02:37:23;;;;;;;5.97;4.67;;;;;;;16.23;100.00;98394.53;5096935;28;20234;-77
2023/09/07 02:39:50;;;;;;;5.27;4.50;;;;;;;16.23;100.00;98392.69;5096319;28;20224;-78
2023/09/07 02:42:16;;;;;;;6.17;5.20;;;;;;;16.22;100.00;98391.06;5096303;28;20662;-78
2023/09/07 02:44:43;;;;;;;5.47;4.93;;;;;;;16.17;100.00;98387.47;5095640;28;20658;-78
2023/09/07 02:47:09;;;;;;;5.40;4.73;;;;;;;16.09;100.00;98386.03;5096659;28;20220;-78
2023/09/07 02:49:35;;;;;;;5.80;4.80;;;;;;;16.10;100.00;98386.84;5096796;28;20234;-78
2023/09/07 02:52:02;;;;;;;6.17;5.17;;;;;;;16.02;100.00;98388.06;5096597;28;20200;-78
2023/09/07 02:54:29;;;;;;;5.30;4.80;;;;;;;16.02;100.00;98381.91;5096584;28;20203;-78
2023/09/07 02:56:55;;;;;;;7.13;5.00;;;;;;;15.99;100.00;98388.56;5096282;28;20203;-78
2023/09/07 02:59:22;;;;;;;5.37;4.67;;;;;;;16.01;100.00;98383.75;5096271;28;20208;-78
2023/09/07 03:01:48;;;;;;;6.00;5.20;;;;;;;15.98;100.00;98378.09;5096195;28;20199;-78
2023/09/07 03:04:14;;;;;;;5.53;4.80;;;;;;;16.00;100.00;98387.50;5096274;28;20206;-78
2023/09/07 03:06:41;;;;;;;5.77;5.17;;;;;;;15.95;100.00;98387.44;5096201;28;20226;-78
2023/09/07 03:09:08;;;;;;;5.20;4.70;;;;;;;15.95;100.00;98384.75;5096069;28;20597;-78
2023/09/07 03:11:35;;;;;;;6.30;5.03;;;;;;;15.94;100.00;98383.13;5095818;28;20211;-78
2023/09/07 03:14:02;;;;;;;6.13;5.07;;;;;;;15.91;100.00;98385.47;5095693;28;20568;-78
2023/09/07 03:16:30;;;;;;;5.23;4.70;;;;;;;15.91;100.00;98382.78;5096118;28;20200;-78
2023/09/07 03:18:56;;;;;;;9.27;5.50;;;;;;;15.86;100.00;98382.72;5096089;28;20631;-78
2023/09/07 03:21:25;;;;;;;5.47;4.93;;;;;;;15.86;100.00;98386.22;5095535;28;20712;-78
2023/09/07 03:23:53;;;;;;;5.73;4.60;;;;;;;15.77;100.00;98379.63;5095902;28;20247;-78
2023/09/07 03:26:19;;;;;;;8.23;4.70;;;;;;;15.85;100.00;98373.06;5078138;28;20230;-78
2023/09/07 03:28:46;;;;;;;6.83;5.20;;;;;;;15.79;100.00;98372.16;5095606;28;20226;-78
2023/09/07 03:31:12;;;;;;;7.23;5.93;;;;;;;15.68;100.00;98375.75;5095721;28;20203;-78
2023/09/07 03:33:38;;;;;;;6.00;5.40;;;;;;;15.71;100.00;98375.25;5095607;28;20207;-78
2023/09/07 03:36:05;;;;;;;6.07;5.53;;;;;;;15.80;100.00;98371.13;5096587;28;20204;-77
2023/09/07 03:38:31;;;;;;;8.00;5.57;;;;;;;15.78;100.00;98364.38;5094923;28;20315;-78
2023/09/07 03:40:58;;;;;;;7.73;5.80;;;;;;;15.78;100.00;98369.75;5095555;28;20220;-78
2023/09/07 03:43:24;;;;;;;7.67;5.60;;;;;;;15.77;100.00;98370.78;5095447;28;20207;-78
2023/09/07 03:45:50;;;;;;;8.43;5.73;;;;;;;15.77;100.00;98366.22;5095567;28;20200;-77
2023/09/07 03:48:17;;;;;;;6.60;5.97;;;;;;;15.74;100.00;98366.72;5095234;28;20226;-78
2023/09/07 03:50:43;;;;;;;7.37;5.70;;;;;;;15.72;100.00;98368.00;5096023;28;20223;-78
2023/09/07 03:53:09;;;;;;;7.37;6.33;;;;;;;15.64;100.00;98376.44;5095440;28;20219;-78
2023/09/07 03:55:43;;;;;;;10.27;6.13;;;;;;;15.60;100.00;98369.97;5093861;28;20200;-78
2023/09/07 03:58:10;;;;;;;10.30;6.53;;;;;;;15.56;100.00;98374.19;5094581;28;20589;-78
2023/09/07 04:00:41;;;;;;;6.83;5.93;;;;;;;15.60;100.00;98373.47;5091185;28;20682;-78
2023/09/07 04:03:10;;;;;;;7.27;6.10;;;;;;;15.77;100.00;98366.22;5092739;28;20200;-79
2023/09/07 04:05:40;;;;;;;7.37;5.50;;;;;;;15.65;100.00;98357.44;5095871;28;20206;-79
2023/09/07 04:08:07;;;;;;;8.40;6.50;;;;;;;15.63;100.00;98369.47;5087900;28;20226;-79
2023/09/07 04:10:33;;;;;;;6.87;6.20;;;;;;;15.48;100.00;98359.34;5084748;28;20235;-79
2023/09/07 04:13:00;;;;;;;7.07;5.63;;;;;;;15.47;100.00;98363.03;5084736;28;20200;-79
2023/09/07 04:15:26;;;;;;;7.93;5.87;;;;;;;15.32;100.00;98360.09;5077299;28;20208;-79
2023/09/07 04:17:54;;;;;;;7.10;6.40;;;;;;;15.38;100.00;98364.50;5076584;28;20240;-79
2023/09/07 04:20:21;;;;;;;7.83;5.40;;;;;;;15.43;100.00;98361.91;5076606;28;20223;-79
2023/09/07 04:22:47;;;;;;;7.33;5.93;;;;;;;15.36;100.00;98365.78;5088162;28;20642;-79
2023/09/07 04:25:14;;;;;;;8.40;6.43;;;;;;;15.33;100.00;98372.41;5095974;28;20200;-79
2023/09/07 04:27:40;;;;;;;8.40;5.87;;;;;;;15.29;100.00;98373.94;5089519;28;20293;-79
2023/09/07 04:30:07;;;;;;;9.20;6.67;;;;;;;15.28;100.00;98371.53;5095225;28;20662;-79
2023/09/07 04:32:34;;;;;;;7.20;5.70;;;;;;;15.21;100.00;98360.97;5095372;28;20204;-79
2023/09/07 04:35:01;;;;;;;6.60;6.00;;;;;;;15.18;100.00;98374.00;5084791;28;20647;-80
2023/09/07 04:37:27;;;;;;;11.57;6.23;;;;;;;15.17;100.00;98375.91;5075502;28;20560;-79
2023/09/07 04:39:54;;;;;;;6.50;5.77;;;;;;;15.15;100.00;98372.63;5077720;28;20233;-80
2023/09/07 04:42:21;;;;;;;7.40;6.60;;;;;;;15.14;100.00;98372.84;5083631;28;20196;-80
2023/09/07 04:44:48;;;;;;;9.33;6.50;;;;;;;15.11;100.00;98370.69;5084143;28;20255;-79
2023/09/07 04:47:15;;;;;;;8.20;6.50;;;;;;;15.17;100.00;98377.75;5075281;28;20255;-79
2023/09/07 04:49:42;;;;;;;9.83;6.77;;;;;;;15.18;100.00;98372.16;5075433;28;20742;-79
2023/09/07 04:52:09;;;;;;;8.13;6.60;;;;;;;15.23;100.00;98380.28;5075686;28;20201;-79
2023/09/07 04:54:35;;;;;;;9.47;6.50;;;;;;;15.20;100.00;98374.59;5087369;28;20196;-79
2023/09/07 04:57:02;;;;;;;7.80;6.40;;;;;;;15.14;100.00;98370.19;5084352;28;20200;-79
2023/09/07 04:59:28;;;;;;;10.50;6.33;;;;;;;15.15;100.00;98377.19;5080995;28;20200;-79
2023/09/07 05:01:55;;;;;;;8.80;6.73;;;;;;;15.14;100.00;98381.72;5074908;28;20224;-79
2023/09/07 05:04:21;;;;;;;9.27;6.17;;;;;;;15.14;100.00;98383.56;5074975;28;20677;-79
2023/09/07 05:06:47;;;;;;;6.87;6.20;;;;;;;15.19;100.00;98381.81;5076099;28;20688;-79
2023/09/07 05:09:14;;;;;;;9.40;6.40;;;;;;;15.21;100.00;98381.56;5076228;28;20205;-79
2023/09/07 05:11:40;;;;;;;8.77;7.20;;;;;;;15.31;100.00;98382.56;5075258;28;20221;-79
2023/09/07 05:14:06;;;;;;;9.77;6.93;;;;;;;15.25;100.00;98388.88;5075572;28;20212;-79
2023/09/07 05:16:32;;;;;;;7.73;6.80;;;;;;;15.22;100.00;98397.41;5075194;28;20209;-79
2023/09/07 05:18:59;;;;;;;10.87;6.57;;;;;;;15.32;100.00;98388.72;5075722;28;20232;-79
2023/09/07 05:21:25;;;;;;;10.20;7.07;;;;;;;15.33;100.00;98398.41;5075743;28;20224;-79
2023/09/07 05:23:51;;;;;;;7.57;6.87;;;;;;;15.34;100.00;98395.50;5076950;28;20207;-79
2023/09/07 05:26:23;;;;;;;8.33;7.00;;;;;;;15.41;100.00;98393.50;5075192;28;20204;-79
2023/09/07 05:28:50;;;;;;;7.53;6.70;;;;;;;15.53;100.00;98399.63;5073549;28;20264;-78
2023/09/07 05:31:17;;;;;;;10.13;7.33;;;;;;;15.60;100.00;98402.13;5072889;28;20205;-78
2023/09/07 05:33:43;;;;;;;7.77;6.50;;;;;;;15.64;100.00;98404.06;5072861;28;20580;-78
2023/09/07 05:36:09;;;;;;;7.33;6.63;;;;;;;15.66;100.00;98411.88;5072727;28;20204;-78
2023/09/07 05:38:36;;;;;;;7.97;6.57;;;;;;;15.71;100.00;98409.28;5073187;28;20228;-78
2023/09/07 05:41:03;;;;;;;10.67;7.07;;;;;;;15.73;100.00;98409.84;5072966;28;20297;-77
2023/09/07 05:43:29;;;;;;;11.93;7.13;;;;;;;15.74;100.00;98406.91;5072839;28;20229;-77
2023/09/07 05:45:56;;;;;;;9.00;6.50;;;;;;;15.85;100.00;98411.41;5072647;28;20671;-77
2023/09/07 05:48:22;;;;;;;7.03;6.23;;;;;;;15.93;100.00;98410.19;5072909;28;20232;-77
2023/09/07 05:50:49;;;;;;;8.13;7.13;;;;;;;15.98;100.00;98402.22;5073202;28;20200;-77
2023/09/07 05:53:15;;;;;;;9.70;6.40;;;;;;;16.02;100.00;98406.84;5073200;28;20282;-77
2023/09/07 05:55:41;;;;;;;13.57;7.43;;;;;;;16.02;100.00;98400.69;5073387;28;20204;-77
2023/09/07 05:58:09;;;;;;;7.63;6.93;;;;;;;16.06;100.00;98402.63;5072313;28;20741;-77
2023/09/07 06:00:38;;;;;;;9.57;7.03;;;;;;;16.04;100.00;98404.75;5072666;28;20225;-77
2023/09/07 06:03:05;;;;;;;11.67;6.83;;;;;;;16.16;100.00;98408.16;5072546;28;20681;-78
2023/09/07 06:05:32;;;;;;;9.07;7.00;;;;;;;16.24;100.00;98407.72;5073661;28;20231;-77
2023/09/07 06:07:58;;;;;;;8.43;7.53;;;;;;;16.22;100.00;98414.38;5072833;28;20228;-78
2023/09/07 06:10:24;;;;;;;9.10;6.07;;;;;;;16.25;100.00;98414.72;5072854;28;20234;-78
2023/09/07 06:12:51;;;;;;;9.37;7.10;;;;;;;16.31;100.00;98415.59;5072549;28;20208;-78
2023/09/07 06:15:17;;;;;;;14.30;7.67;;;;;;;16.32;100.00;98412.66;5072903;28;20207;-78
2023/09/07 06:17:45;;;;;;;9.40;7.03;;;;;;;16.40;100.00;98414.13;5073262;28;20227;-78
2023/09/07 06:20:12;;;;;;;9.27;6.90;;;;;;;16.33;100.00;98406.22;5075348;28;20208;-78
2023/09/07 06:22:38;;;;;;;10.60;7.50;;;;;;;16.42;100.00;98409.34;5076403;28;20296;-78
2023/09/07 06:25:05;;;;;;;8.63;6.70;;;;;;;16.56;100.00;98413.31;5076298;28;20207;-78
2023/09/07 06:27:31;;;;;;;12.63;6.80;;;;;;;16.61;100.00;98411.47;5076053;28;20280;-78
2023/09/07 06:29:57;;;;;;;9.30;7.87;;;;;;;16.77;100.00;98412.50;5076306;28;20205;-78
2023/09/07 06:32:24;;;;;;;10.30;7.00;;;;;;;16.79;100.00;98413.88;5076197;28;20211;-78
2023/09/07 06:34:50;;;;;;;11.00;7.20;;;;;;;16.82;100.00;98410.69;5076942;28;20215;-78
2023/09/07 06:37:18;;;;;;;13.87;8.40;;;;;;;16.90;100.00;98414.81;5076383;28;20224;-78
2023/09/07 06:39:44;;;;;;;10.37;8.43;;;;;;;16.89;100.00;98416.69;5075831;28;20209;-78
2023/09/07 06:42:11;;;;;;;8.80;7.40;;;;;;;16.98;100.00;98411.69;5076180;28;20230;-78
2023/09/07 06:44:37;;;;;;;11.80;7.77;;;;;;;17.00;100.00;98399.63;5076244;28;20666;-78
2023/09/07 06:47:04;;;;;;;14.43;7.27;;;;;;;17.10;100.00;98404.31;5075794;28;20208;-78
2023/09/07 06:49:30;;;;;;;14.13;7.20;;;;;;;17.39;100.00;98411.91;5075865;28;20681;-78
2023/09/07 06:51:57;;;;;;;12.53;8.53;;;;;;;17.45;100.00;98413.59;5076148;28;20204;-78
2023/09/07 06:54:23;;;;;;;9.93;7.60;;;;;;;17.38;100.00;98422.88;5075483;28;20216;-78
2023/09/07 06:56:50;;;;;;;8.47;7.33;;;;;;;17.46;100.00;98417.88;5075571;28;20200;-79
2023/09/07 06:59:16;;;;;;;10.53;7.23;;;;;;;17.54;100.00;98419.31;5078746;28;20207;-80
2023/09/07 07:01:43;;;;;;;8.70;7.73;;;;;;;17.58;100.00;98428.47;5078347;28;20291;-80
2023/09/07 07:04:09;;;;;;;11.47;7.20;;;;;;;17.69;100.00;98424.84;5078424;28;20238;-80
2023/09/07 07:06:36;;;;;;;8.50;6.93;;;;;;;17.74;100.00;98427.56;5077074;28;20227;-80
2023/09/07 07:09:02;;;;;;;8.93;6.57;;;;;;;17.78;100.00;98434.88;5078375;28;20342;-80
2023/09/07 07:11:28;;;;;;;12.07;7.20;;;;;;;17.84;100.00;98433.84;5078056;28;20218;-80
2023/09/07 07:13:55;;;;;;;7.10;6.23;;;;;;;18.05;100.00;98434.84;5076877;28;20542;-80
2023/09/07 07:16:21;;;;;;;9.23;6.90;;;;;;;18.02;100.00;98436.16;5059720;28;20395;-80
2023/09/07 07:18:47;;;;;;;11.43;7.07;;;;;;;17.94;100.00;98438.50;5076777;28;20229;-80
2023/09/07 07:21:14;;;;;;;7.50;6.63;;;;;;;17.93;100.00;98434.19;5076152;28;20221;-79
2023/09/07 07:23:40;;;;;;;7.67;6.90;;;;;;;17.98;100.00;98431.53;5076682;28;20204;-79
2023/09/07 07:26:06;;;;;;;8.93;6.43;;;;;;;18.12;100.00;98446.19;5076590;28;20201;-73
2023/09/07 07:28:33;;;;;;;8.23;6.00;;;;;;;18.20;100.00;98441.16;5075698;28;20706;-75
2023/09/07 07:30:59;;;;;;;8.00;6.30;;;;;;;18.27;100.00;98441.72;5074608;28;20200;-74
2023/09/07 07:33:25;;;;;;;8.93;5.53;;;;;;;18.48;100.00;98442.69;5074725;28;20205;-74
2023/09/07 07:35:52;;;;;;;7.90;5.83;;;;;;;18.76;100.00;98442.31;5075001;28;20219;-74
2023/09/07 07:38:19;;;;;;;8.33;5.60;;;;;;;18.79;100.00;98439.94;5075079;28;20311;-74
2023/09/07 07:40:46;;;;;;;6.30;5.67;;;;;;;18.73;100.00;98445.56;5074859;28;20721;-75
2023/09/07 07:43:13;;;;;;;8.37;5.87;;;;;;;18.92;100.00;98439.44;5075008;28;20215;-74
2023/09/07 07:45:39;;;;;;;6.30;5.70;;;;;;;18.90;100.00;98440.78;5074567;28;20322;-73
2023/09/07 07:48:07;;;;;;;10.40;5.93;;;;;;;18.95;100.00;98440.81;5074428;28;20248;-74
2023/09/07 07:50:37;;;;;;;6.83;6.03;;;;;;;18.84;100.00;98439.13;5074677;28;20575;-73
2023/09/07 07:53:04;;;;;;;6.83;5.93;;;;;;;18.96;100.00;98437.84;5074639;28;20189;-73
2023/09/07 07:55:30;;;;;;;9.17;5.67;;;;;;;19.35;100.00;98438.28;5074654;28;20207;-73
2023/09/07 07:57:57;;;;;;;8.27;6.20;;;;;;;19.38;100.00;98441.28;5074436;28;20225;-73
2023/09/07 08:00:23;;;;;;;6.47;5.57;;;;;;;19.40;100.00;98444.50;5074489;28;20207;-73
2023/09/07 08:02:49;;;;;;;11.93;6.03;;;;;;;19.32;100.00;98434.22;5074262;28;20228;-73
2023/09/07 08:05:16;;;;;;;6.53;5.73;;;;;;;19.48;100.00;98434.28;5074783;28;20209;-73
2023/09/07 08:07:42;;;;;;;9.03;5.70;;;;;;;19.37;100.00;98436.94;5074137;28;20237;-73
2023/09/07 08:10:09;;;;;;;7.27;5.23;;;;;;;19.59;100.00;98440.22;5074281;28;20215;-73
2023/09/07 08:12:35;;;;;;;6.47;5.10;;;;;;;19.73;100.00;98435.94;5073907;28;20586;-73
2023/09/07 08:15:01;;;;;;;6.67;5.57;;;;;;;19.98;100.00;98424.34;5074282;28;20223;-73
2023/09/07 08:17:28;;;;;;;6.70;5.80;;;;;;;20.11;100.00;98428.44;5074015;28;20630;-72
2023/09/07 08:19:56;;;;;;;8.43;5.70;;;;;;;20.18;100.00;98418.16;5074044;28;20678;-72
2023/09/07 08:22:23;;;;;;;7.53;5.80;;;;;;;20.08;100.00;98421.66;5073920;28;20216;-72
2023/09/07 08:24:50;;;;;;;7.90;5.67;;;;;;;20.10;100.00;98419.53;5074110;28;20243;-73
2023/09/07 08:27:18;;;;;;;8.27;5.67;;;;;;;20.21;100.00;98423.03;5073940;28;20228;-74
2023/09/07 08:29:51;;;;;;;6.60;5.23;;;;;;;20.45;100.00;98418.66;5073964;28;20205;-74
2023/09/07 08:32:17;;;;;;;7.60;5.00;;;;;;;20.56;100.00;98418.38;5074050;28;20180;-74
2023/09/07 08:34:44;;;;;;;5.83;4.90;;;;;;;20.78;100.00;98424.25;5073625;28;20570;-74
2023/09/07 08:37:10;;;;;;;6.10;4.47;;;;;;;20.81;100.00;98426.44;5073609;28;20224;-74
2023/09/07 08:39:39;;;;;;;7.63;4.93;;;;;;;20.95;100.00;98434.78;5073717;28;20200;-74
2023/09/07 08:42:06;;;;;;;4.63;4.03;;;;;;;20.96;100.00;98431.81;5073254;28;20225;-74
2023/09/07 08:44:34;;;;;;;5.70;5.07;;;;;;;21.15;100.00;98438.19;5073800;28;20204;-75
2023/09/07 08:47:03;;;;;;;6.00;4.73;;;;;;;21.33;100.00;98428.66;5073557;28;20211;-73
2023/09/07 08:49:30;;;;;;;7.37;5.10;;;;;;;21.09;100.00;98433.91;5073959;28;20244;-74
2023/09/07 08:51:59;;;;;;;5.20;4.67;;;;;;;21.28;100.00;98428.66;5074561;28;20201;-73
2023/09/07 08:54:27;;;;;;;6.27;4.90;;;;;;;21.34;100.00;98431.06;5073858;28;20214;-74
2023/09/07 08:56:53;;;;;;;6.17;5.00;;;;;;;21.59;100.00;98430.13;5073873;28;20204;-74
2023/09/07 08:59:20;;;;;;;6.87;5.33;;;;;;;21.59;100.00;98430.94;5073944;28;20204;-74
2023/09/07 09:01:46;;;;;;;6.33;5.60;;;;;;;21.48;99.52;98436.69;5074345;28;20222;-74
2023/09/07 09:04:13;;;;;;;6.23;5.17;;;;;;;21.30;100.00;98437.34;5074122;28;20204;-75
2023/09/07 09:06:40;;;;;;;5.73;5.03;;;;;;;21.48;100.00;98434.78;5073021;28;20307;-75
2023/09/07 09:09:06;;;;;;;6.87;5.63;;;;;;;21.82;98.59;98438.38;5073714;28;20588;-75
2023/09/07 09:11:32;;;;;;;5.50;5.00;;;;;;;21.84;100.00;98430.78;5073299;28;20209;-75
2023/09/07 09:13:59;;;;;;;7.87;5.57;;;;;;;22.04;98.85;98425.22;5073269;28;20565;-74
2023/09/07 09:16:26;;;;;;;5.30;4.80;;;;;;;22.06;99.95;98435.78;5073217;28;20220;-74
2023/09/07 09:18:54;;;;;;;6.30;5.20;;;;;;;22.22;98.87;98431.84;5073358;28;20231;-74
2023/09/07 09:21:22;;;;;;;5.90;5.30;;;;;;;22.37;99.94;98434.41;5073352;28;20224;-74
2023/09/07 09:23:50;;;;;;;6.00;5.40;;;;;;;22.47;97.63;98431.66;5073409;28;20204;-74
2023/09/07 09:26:17;;;;;;;6.55;5.20;;;;;;;22.41;98.57;98421.91;5073313;28;20200;-74
2023/09/07 09:28:44;;;;;;;6.88;5.72;;;;;;;22.44;98.05;98421.34;5073172;28;20609;-74
2023/09/07 09:31:12;;;;;;;7.60;5.10;;;;;;;22.59;97.68;98415.78;5073822;28;20224;-74
2023/09/07 09:33:40;;;;;;;8.23;5.22;;;;;;;22.62;97.25;98417.94;5073330;28;20258;-74
2023/09/07 09:36:07;;;;;;;7.22;5.80;;;;;;;22.80;97.22;98420.69;5073347;28;20729;-74
2023/09/07 09:38:35;;;;;;;6.22;5.18;;;;;;;22.83;97.61;98420.13;5073022;28;20239;-74
2023/09/07 09:41:03;;;;;;;6.40;5.80;;;;;;;22.68;95.41;98414.06;5072909;28;20212;-74
2023/09/07 09:43:29;;;;;;;5.50;5.00;;;;;;;23.03;96.25;98419.91;5073127;28;20246;-74
2023/09/07 09:45:56;;;;;;;6.32;5.00;;;;;;;22.95;97.02;98412.41;5073193;28;20205;-74
2023/09/07 09:48:23;;;;;;;7.50;5.00;;;;;;;23.26;98.25;98407.44;5072660;28;20748;-74
2023/09/07 09:50:50;;;;;;;5.72;5.30;;;;;;;23.57;94.22;98417.56;5072722;28;20212;-74
2023/09/07 09:53:18;;;;;;;7.15;5.30;;;;;;;23.60;94.24;98406.13;5072846;28;20258;-74
2023/09/07 09:55:47;;;;;;;8.25;5.10;;;;;;;23.58;94.24;98404.81;5076615;28;20232;-74
2023/09/07 09:58:17;;;;;;;9.18;5.57;;;;;;;23.79;93.19;98414.25;5076664;28;20251;-74
2023/09/07 10:00:46;;;;;;;6.00;5.35;;;;;;;23.77;91.85;98408.31;5076086;28;20220;-75
2023/09/07 10:03:30;;;;;;;7.90;5.57;;;;;;;23.71;92.72;98412.22;5076419;28;20262;-75
2023/09/07 10:05:56;;;;;;;5.65;5.13;;;;;;;23.92;92.21;98410.84;5076045;28;20189;-75
2023/09/07 10:08:23;;;;;;;5.97;5.25;;;;;;;23.75;92.47;98411.31;5076247;28;20228;-74
2023/09/07 10:10:54;;;;;;;5.78;5.20;;;;;;;23.75;92.46;98411.31;5076025;28;20641;-74
2023/09/07 10:13:33;;;;;;;6.63;5.80;;;;;;;23.86;91.61;98403.81;5076284;28;20213;-74
2023/09/07 10:16:08;;;;;;;5.38;4.90;;;;;;;24.01;89.79;98406.34;5077339;28;20189;-74
2023/09/07 10:18:36;;;;;;;6.40;5.10;;;;;;;23.86;92.68;98404.63;5076180;28;20263;-74
2023/09/07 10:21:03;;;;;;;5.40;4.70;;;;;;;24.00;92.40;98410.97;5076253;28;20208;-74
2023/09/07 10:23:37;;;;;;;7.88;5.35;;;;;;;24.05;90.73;98400.00;5076030;28;20201;-74
2023/09/07 10:26:05;;;;;;;5.25;4.57;;;;;;;24.35;90.19;98404.09;5076133;28;20208;-74
2023/09/07 10:28:32;;;;;;;5.50;5.00;;;;;;;24.43;88.14;98398.00;5076302;28;20228;-73
2023/09/07 10:31:14;;;;;;;5.82;5.38;;;;;;;23.80;88.53;98399.56;5076093;28;20204;-75
2023/09/07 10:33:40;;;;;;;5.72;5.22;;;;;;;23.81;93.10;98393.84;5075645;28;20276;-74
2023/09/07 10:36:07;;;;;;;5.82;5.25;;;;;;;24.25;90.26;98386.06;5075589;28;20245;-74
2023/09/07 10:38:34;;;;;;;6.90;5.00;;;;;;;23.82;89.64;98389.22;5075473;28;20710;-76
2023/09/07 10:41:04;;;;;;;6.50;4.38;;;;;;;23.84;90.19;98384.31;5075692;28;20204;-75
2023/09/07 10:43:32;;;;;;;5.70;5.10;;;;;;;24.29;90.91;98370.00;5075536;28;20797;-75
2023/09/07 10:46:00;;;;;;;8.35;5.10;;;;;;;24.58;89.36;98378.66;5075405;28;20682;-74
2023/09/07 10:48:29;;;;;;;6.18;4.60;;;;;;;24.82;89.01;98376.59;5075867;28;20229;-75
2023/09/07 10:50:56;;;;;;;5.00;4.60;;;;;;;24.51;89.41;98367.41;5075566;28;20208;-75
2023/09/07 10:53:31;;;;;;;6.85;5.13;;;;;;;24.96;85.76;98369.25;5075776;28;20200;-74
2023/09/07 10:56:00;;;;;;;5.47;4.53;;;;;;;24.75;87.22;98363.41;5075845;28;20214;-74
2023/09/07 10:58:32;;;;;;;5.85;4.82;;;;;;;24.62;86.70;98364.22;5075685;28;20231;-75
2023/09/07 11:00:59;;;;;;;4.90;4.50;;;;;;;24.84;88.33;98360.78;5075518;28;20212;-75
2023/09/07 11:03:27;;;;;;;5.32;4.90;;;;;;;25.34;86.17;98363.28;5075345;28;20243;-75
2023/09/07 11:05:59;;;;;;;5.30;4.82;;;;;;;25.20;84.23;98361.66;5074996;28;20207;-74
2023/09/07 11:08:26;;;;;;;6.28;5.10;;;;;;;25.32;85.46;98361.94;5074987;28;20239;-74
2023/09/07 11:10:52;;;;;;;5.57;5.00;;;;;;;25.47;88.90;98361.59;5073607;28;20216;-74
2023/09/07 11:13:19;;;;;;;5.90;4.78;;;;;;;25.51;85.48;98354.44;5075289;28;20200;-75
2023/09/07 11:15:45;;;;;;;5.43;4.88;;;;;;;25.41;84.31;98358.19;5075154;28;20499;-74
2023/09/07 11:18:13;;;;;;;5.43;4.47;;;;;;;25.53;82.77;98354.94;5075056;28;20285;-74
2023/09/07 11:20:39;;;;;;;5.63;5.13;;;;;;;25.47;81.93;98358.88;5075892;28;20205;-75
2023/09/07 11:23:06;;;;;;;5.07;4.45;;;;;;;25.24;83.76;98351.75;5076519;28;20232;-74
2023/09/07 11:25:37;;;;;;;4.97;4.22;;;;;;;25.37;82.82;98350.97;5075677;28;20284;-75
2023/09/07 11:28:05;;;;;;;5.00;4.63;;;;;;;25.27;84.03;98348.44;5075055;28;20225;-75